Main page
METAR-TAF:

METAR-TAF

Airports :

Tupelo Regional Airport

Tupelo, Mississippi, United States

latitude: 34-16-05N, longitude: 088-46-12W, elevation: 348 ft

Current weather observation

The report was made 55 minutes ago, at 04:53 UTC
Wind 7 mph from the East/Northeast
Temperature 79°F
Humidity 65%
Pressure 30.21 in. Hg
Visibility: 10 miles
Clear sky

METAR: KTUP 200453Z AUTO 06006KT 10SM CLR 26/19 A3021 RMK AO2 SLP224 T02560189 $

Time: 00:48 (05:48 UTC)

Forecast

The report was made 28 minutes ago, at 05:20 UTC
Forecast valid from 20 at 06 UTC to 21 at 06 UTC
Wind 3 mph from the East/Northeast
Visibility: 6 miles
Few clouds at a height of 20000 ft
Scattered clouds at a height of 25000 ft
From 20 at 1400 UTC
Wind 9 mph from the East/Southeast
Visibility: 6 miles
Scattered clouds at a height of 25000 ft
From 21 at 0200 UTC
Wind 3 mph from the East/Northeast
Visibility: 6 miles
Clear sky

TAF: KTUP 200520Z 2006/2106 06003KT P6SM FEW200 SCT250 FM201400 12008KT P6SM SCT250 FM210200 06003KT P6SM SKC

Weather observations and forecasts of more than 4000 airports (METAR and TAF reports).

The available stations are represented by yellow and red dots on the map.

Hover mouse over dot to see the name of the station.

Then click to see weather observations and forecasts.

To change the map : click on the green buttons with a black cross to zoom in, on the green button with a dash to zoom out, or on the green arrows for adjacent maps.


METAR-TAF: